• Join FlightAware (Why Join?)
  • Login
  • US Flag 
07:51AM EDT


 

Airport Tracker/Info


-or-


 

Live Flight TrackerFlight Track Log ✈ ASQ4352 ✈ 11-May-2013 ✈ KEWR - KCVG

Flight Track Log - Related Links

Times and Time Zones

All times are in EDT time to prevent confusion due to time zone crossing. See the ASQ4352 flight status page for this flight to view local times or setup timezone preferences in your user account.

Time Position Orientation Groundspeed Altitude Reporting Facility
EDT Latitude Longitude Course Direction KTS MPH feet Rate Location/Type
06:35PM 40.6833 -74.1833 194° South 158 182 500  Level New York TRACON
06:35PM 40.6333 -74.2000 194° South 196 226 2,000 1,920 Climbing New York TRACON
06:36PM 40.6333 -74.2667 270° West 224 258 4,200 1,800 Climbing New York TRACON
06:37PM 40.6667 -74.3500 298° West 258 297 5,700 1,800 Climbing New York TRACON
06:38PM 40.7333 -74.3833 339° North 272 313 7,800 2,100 Climbing New York TRACON
06:39PM 40.8000 -74.4333 330° Northwest 274 315 9,900 1,140 Climbing New York TRACON
06:40PM 40.8667 -74.4833 330° Northwest 320 368 10,100 300 Climbing New York TRACON
06:41PM 40.9328 -74.5367 329° Northwest 357 411 10,500 1,440 Climbing New York Center
06:42PM 41.0242 -74.6078 330° Northwest 364 419 12,700 1,860 Climbing New York Center
06:43PM 41.1017 -74.6644 331° Northwest 353 406 14,200 1,680 Climbing New York Center
06:44PM 41.1689 -74.7675 311° West 337 388 16,100 1,620 Climbing New York Center
06:45PM 41.2094 -74.8608 300° West 332 382 17,600 1,800 Climbing New York Center
06:46PM 41.2519 -74.9600 300° West 322 371 19,700 1,740 Climbing New York Center
06:47PM 41.2961 -75.0650 299° West 317 365 21,100 1,320 Climbing New York Center
06:48PM 41.3400 -75.1700 299° West 317 365 22,400 1,200 Climbing New York Center
06:49PM 41.3900 -75.2811 301° West 331 381 23,600 1,200 Climbing New York Center
06:50PM 41.4375 -75.3978 299° West 345 397 24,900 1,200 Climbing New York Center
06:51PM 41.4831 -75.5089 299° West 345 397 26,100 1,200 Climbing New York Center
06:52PM 41.5178 -75.6333 290° West 345 397 27,400 1,260 Climbing New York Center
06:53PM 41.5525 -75.7494 292° West 345 397 28,600 1,020 Climbing New York Center
06:54PM 41.5869 -75.8714 291° West 345 397 29,500 660 Climbing New York Center
06:55PM 41.6211 -75.9933 291° West 345 397 30,000 600 Climbing New York Center
06:56PM 41.6625 -76.1408 291° West 374 430 30,700 1,140 Climbing New York Center
06:57PM 41.6983 -76.2686 291° West 374 430 32,300 1,500 Climbing New York Center
06:58PM 41.7339 -76.3967 290° West 374 430 33,800 1,260 Climbing New York Center
06:59PM 41.7642 -76.5050 291° West 364 419 34,900 840 Climbing New York Center
07:00PM 41.7997 -76.6306 291° West 358 412 35,600 540 Climbing New York Center
07:01PM 41.8331 -76.7558 290° West 358 412 36,000 120 Climbing New York Center
07:03PM 41.8950 -76.9706 291° West 372 428 36,000  Level Cleveland Center
07:04PM 41.9306 -77.1108 289° West 391 450 36,000  Level Cleveland Center
07:05PM 41.9700 -77.2511 291° West 403 464 36,000  Level Cleveland Center
07:06PM 42.0053 -77.3919 289° West 403 464 36,000  Level Cleveland Center
07:07PM 42.0447 -77.5325 291° West 403 464 36,000  Level Cleveland Center
07:08PM 42.0525 -77.6775 274° West 386 444 36,000  Level Cleveland Center
07:09PM 42.0200 -77.7908 249° West 373 429 36,000  Level Cleveland Center
07:10PM 41.9708 -77.9186 243° Southwest 367 422 36,000  Level Cleveland Center
07:11PM 41.9236 -78.0492 244° Southwest 378 435 36,000  Level Cleveland Center
07:12PM 41.8744 -78.1767 243° Southwest 390 449 36,000  Level Cleveland Center
07:13PM 41.8269 -78.3064 244° Southwest 395 455 36,000  Level Cleveland Center
07:14PM 41.7814 -78.4333 244° Southwest 390 449 36,000  Level Cleveland Center
07:15PM 41.7339 -78.5631 244° Southwest 390 449 36,000  Level Cleveland Center
07:16PM 41.6858 -78.6925 244° Southwest 390 449 36,000  Level Cleveland Center
07:17PM 41.6381 -78.8189 243° Southwest 390 449 36,000  Level Cleveland Center
07:18PM 41.5919 -78.9478 244° Southwest 390 449 36,000  Level Cleveland Center
07:19PM 41.5397 -79.0906 244° Southwest 390 449 36,000  Level Cleveland Center
07:20PM 41.4911 -79.2192 243° Southwest 390 449 36,000  Level Cleveland Center
07:21PM 41.4447 -79.3478 244° Southwest 390 449 36,000  Level Cleveland Center
07:22PM 41.3958 -79.4731 243° Southwest 390 449 36,000  Level Cleveland Center
07:23PM 41.3469 -79.5986 243° Southwest 390 449 36,000  Level Cleveland Center
07:24PM 41.2981 -79.7264 243° Southwest 390 449 36,000  Level Cleveland Center
07:25PM 41.2489 -79.8569 243° Southwest 390 449 36,000  Level Cleveland Center
07:26PM 41.1997 -79.9814 242° Southwest 390 449 36,000  Level Cleveland Center
07:27PM 41.1583 -80.0950 244° Southwest 383 441 36,000  Level Cleveland Center
07:28PM 41.1089 -80.2194 242° Southwest 388 447 36,000  Level Cleveland Center
07:29PM 41.0592 -80.3436 242° Southwest 388 447 36,000  Level Cleveland Center
07:30PM 41.0114 -80.4675 243° Southwest 388 447 36,000  Level Cleveland Center
07:31PM 40.9614 -80.5914 242° Southwest 388 447 36,000  Level Cleveland Center
07:32PM 40.9133 -80.7150 243° Southwest 388 447 36,000  Level Cleveland Center
07:33PM 40.8653 -80.8383 243° Southwest 383 441 36,000  Level Cleveland Center
07:34PM 40.8169 -80.9617 243° Southwest 388 447 36,000 -480 Level Cleveland Center
07:36PM 40.7011 -81.2483 242° Southwest 385 443 34,400 -900 Descending Indianapolis Center
07:37PM 40.6500 -81.3750 242° Southwest 386 444 33,000 -1,140 Descending Indianapolis Center
07:38PM 40.5983 -81.5028 242° Southwest 389 448 32,100 -540 Descending Indianapolis Center
07:39PM 40.5469 -81.6292 242° Southwest 388 447 32,000 -60 Descending Indianapolis Center
07:40PM 40.4956 -81.7553 242° Southwest 387 445 32,000  Level Indianapolis Center
07:41PM 40.4342 -81.9042 242° Southwest 393 452 32,000  Level Indianapolis Center
07:42PM 40.3822 -82.0314 242° Southwest 392 451 32,000  Level Indianapolis Center
07:43PM 40.3300 -82.1583 242° Southwest 392 451 32,000  Level Indianapolis Center
07:44PM 40.2772 -82.2856 241° Southwest 392 451 32,000  Level Indianapolis Center
07:45PM 40.2289 -82.4033 242° Southwest 395 455 32,000  Level Indianapolis Center
07:46PM 40.1756 -82.5286 241° Southwest 392 451 32,000 -660 Level Indianapolis Center
07:47PM 40.1228 -82.6553 241° Southwest 393 452 30,700 -1,800 Descending Indianapolis Center
07:48PM 40.0700 -82.7825 242° Southwest 395 455 28,400 -2,460 Descending Indianapolis Center
07:49PM 40.0175 -82.9100 242° Southwest 395 455 25,700 -2,220 Descending Indianapolis Center
07:50PM 39.9644 -83.0350 241° Southwest 390 449 24,000 -840 Descending Indianapolis Center
07:51PM 39.9139 -83.1550 241° Southwest 376 433 24,000  Level Indianapolis Center
07:52PM 39.8619 -83.2789 241° Southwest 383 441 24,000 -120 Level Indianapolis Center
07:53PM 39.8081 -83.4061 241° Southwest 390 449 23,800 -1,260 Descending Indianapolis Center
07:54PM 39.7533 -83.5328 241° Southwest 385 443 21,500 -2,280 Descending Indianapolis Center
07:55PM 39.7025 -83.6522 241° Southwest 376 433 19,200 -2,280 Descending Indianapolis Center
07:56PM 39.6533 -83.7667 241° Southwest 361 415 16,900 -2,280 Descending Indianapolis Center
07:57PM 39.6053 -83.8786 241° Southwest 354 407 14,600 -2,220 Descending Indianapolis Center
07:58PM 39.5456 -83.9744 231° Southwest 340 391 12,400 -1,800 Descending Indianapolis Center
07:59PM 39.4794 -84.0658 227° Southwest 344 396 11,000 -840 Descending Indianapolis Center
08:00PM 39.4161 -84.1558 228° Southwest 339 390 10,700 -780 Descending Indianapolis Center
08:01PM 39.3739 -84.2603 242° Southwest 280 322 9,500 -1,320 Descending Indianapolis Center
08:03PM 39.3436 -84.3408 244° Southwest 252 290 8,100 -1,560 Descending Indianapolis Center
08:04PM 39.3156 -84.4214 246° West 246 283 6,400 -1,080 Descending Indianapolis Center
08:05PM 39.2861 -84.5000 244° Southwest 242 278 6,000 -360 Descending Indianapolis Center
08:06PM 39.2569 -84.5794 245° Southwest 243 280 5,700 -1,020 Descending Indianapolis Center
08:07PM 39.2264 -84.6508 241° Southwest 232 267 4,000 -1,680 Descending Indianapolis Center
08:07PM 39.2000 -84.6500 179° South 245 282 3,400 -1,320 Descending Cincinnati TRACON
08:08PM 39.1333 -84.6667 191° South 237 273 2,200 -1,200 Descending Cincinnati TRACON